Ginys del Meteocat

Dades de l'estació automàtica Pinós

?
?
Resum diari 21:30 TU
Dades diàries de l'estació meteorològica
Temperatura mitjana 5.8 °C
Temperatura màxima 11.6 °C 14:37 TU
Temperatura mínima 0.9 °C 6:31 TU
Humitat relativa mitjana 86%
Precipitació acumulada 0.1 mm
Ratxa màxima del vent (6 m) 17.6 km/h - 268º 14:21 TU
Irradiació solar global 10.7 MJ/m2

El tram horari està expressat en Temps Universal (TU). Cal sumar una hora en horari d'hivern i dues en horari d'estiu per passar a l'hora oficial.

Pinós

Metadades estació meteorol´gica
Municipi Pinós
Comarca Solsonès
Altitud 659 m
Data alta 03.07.1995
Estat actual Operativa
Dades de període
Període
TU
TM
°C
TX
°C
TN
°C
HRM
%
PPT
mm
VVM (6 m)
km/h
DVM (6 m)
graus
VVX (6 m)
km/h
RS
W/m2
00:00 - 00:30 4.2 4.2 4.1 99 0.0 4.7 69 9.0 0
00:30 - 01:00 4.1 4.2 4.0 99 0.0 6.1 62 10.1 0
01:00 - 01:30 4.0 4.1 3.7 99 0.0 5.4 64 9.0 0
01:30 - 02:00 3.8 4.0 3.5 98 0.0 5.0 62 9.0 0
02:00 - 02:30 3.7 3.9 3.5 98 0.0 6.1 65 9.0 0
02:30 - 03:00 3.6 3.8 3.5 98 0.0 6.8 64 9.0 0
03:00 - 03:30 3.6 3.9 3.5 98 0.0 5.0 69 8.6 0
03:30 - 04:00 3.4 3.7 3.0 98 0.0 3.6 72 5.8 0
04:00 - 04:30 3.2 3.7 2.7 96 0.0 4.3 71 7.6 0
04:30 - 05:00 3.7 3.9 3.3 96 0.0 5.4 69 10.8 0
05:00 - 05:30 2.9 3.3 2.0 97 0.0 4.0 68 9.0 0
05:30 - 06:00 2.2 2.6 1.2 98 0.1 1.4 82 4.3 0
06:00 - 06:30 1.5 2.0 1.0 99 0.0 1.1 224 3.2 0
06:30 - 07:00 1.4 1.9 0.9 100 0.0 1.4 75 3.6 0
07:00 - 07:30 1.7 1.8 1.4 100 0.0 0.0 33 1.8 5
07:30 - 08:00 2.0 2.6 1.4 100 0.0 1.1 46 3.2 36
08:00 - 08:30 3.1 3.9 2.6 100 0.0 0.4 52 1.8 91
08:30 - 09:00 4.6 5.5 4.0 95 0.0 0.7 59 2.2 183
09:00 - 09:30 6.2 7.0 5.5 84 0.0 1.1 63 4.7 267
09:30 - 10:00 7.2 7.7 6.8 80 0.0 2.5 234 4.7 344
10:00 - 10:30 8.5 8.9 7.7 73 0.0 5.0 213 8.3 409
10:30 - 11:00 9.1 9.4 8.9 73 0.0 5.8 233 7.9 461
11:00 - 11:30 9.9 10.1 9.6 71 0.0 6.8 229 10.8 498
11:30 - 12:00 10.2 10.4 10.1 68 0.0 9.7 236 15.8 519
12:00 - 12:30 10.5 11.0 10.1 67 0.0 9.0 247 16.2 524
12:30 - 13:00 10.7 11.0 10.5 63 0.0 10.4 252 16.6 516
13:00 - 13:30 10.8 11.0 10.7 61 0.0 10.8 264 16.9 440
13:30 - 14:00 10.8 11.2 10.4 63 0.0 9.7 269 14.8 458
14:00 - 14:30 11.3 11.5 11.1 57 0.0 10.4 273 17.6 436
14:30 - 15:00 11.2 11.6 11.0 58 0.0 9.0 269 14.8 329
15:00 - 15:30 11.1 11.3 10.8 59 0.0 9.4 246 15.8 248
15:30 - 16:00 10.6 10.9 10.2 60 0.0 9.4 238 16.9 158
16:00 - 16:30 9.4 10.2 8.5 67 0.0 4.7 241 11.5 55
16:30 - 17:00 7.7 8.4 6.9 73 0.0 2.9 219 5.0 13
17:00 - 17:30 6.4 7.0 5.5 80 0.0 1.4 204 4.7 0
17:30 - 18:00 5.1 5.8 4.3 86 0.0 0.4 32 1.8 0
18:00 - 18:30 4.3 5.1 3.8 90 0.0 0.4 65 2.9 0
18:30 - 19:00 4.0 4.5 3.8 93 0.0 0.4 185 2.2 0
19:00 - 19:30 4.2 4.7 3.6 91 0.0 1.1 213 3.6 0
19:30 - 20:00 3.8 4.1 3.5 93 0.0 0.7 192 3.2 0
20:00 - 20:30 3.6 4.3 2.7 95 0.0 0.7 45 2.9 0
20:30 - 21:00 3.4 4.0 2.8 97 0.0 2.5 55 5.8 0
21:00 - 21:30 3.7 4.2 3.3 98 0.0 3.2 80 6.5 0
21:30 - 22:00 3.6 4.2 3.4 96 0.0 2.5 76 5.8 0

Les dades en taronja només han passat un control de qualitat automàtic. Resta pendent la seva validació definitiva.